Terminal Aerodrome Forecast
Issued by NWS Albany, NY

Home | Current Version | Previous Version | Text Only | Print | Product List | Glossary On
Versions: 1 2 3 4 5 6 7 8 9 10 11 12 13 14 15 16 17 18 19 20 21 22 23 24 25 26 27
074
FTUS41 KALY 031138
TAFPOU
TAF
KPOU 031138Z 0312/0412 02004KT 6SM -SHRA BR SCT012 OVC020
      TEMPO 0312/0315 3SM -SHRA BR BKN009 OVC015
     FM031600 01004KT P6SM VCSH OVC015
     FM040100 VRB02KT P6SM OVC009=

USA.gov is the U.S. government's official web portal to all federal, state and local government web resources and services.